sensor_id;sensor_type;location;lat;lon;timestamp;P1;durP1;ratioP1;P2;durP2;ratioP2
45322;SDS011;31382;50.200;8.674;2023-11-21T00:01:18;7.05;;;1.65;;
45322;SDS011;31382;50.200;8.674;2023-11-21T00:06:19;5.75;;;1.08;;
45322;SDS011;31382;50.200;8.674;2023-11-21T00:11:21;7.15;;;1.73;;
45322;SDS011;31382;50.200;8.674;2023-11-21T00:16:23;5.00;;;1.30;;
45322;SDS011;31382;50.200;8.674;2023-11-21T00:21:25;4.68;;;1.83;;
45322;SDS011;31382;50.200;8.674;2023-11-21T00:26:26;4.05;;;2.60;;
45322;SDS011;31382;50.200;8.674;2023-11-21T00:31:28;12.57;;;2.92;;
45322;SDS011;31382;50.200;8.674;2023-11-21T00:36:29;6.25;;;2.47;;
45322;SDS011;31382;50.200;8.674;2023-11-21T00:41:31;5.45;;;2.05;;
45322;SDS011;31382;50.200;8.674;2023-11-21T00:46:32;7.18;;;3.03;;
45322;SDS011;31382;50.200;8.674;2023-11-21T00:51:34;9.65;;;3.50;;
45322;SDS011;31382;50.200;8.674;2023-11-21T00:56:35;7.88;;;3.17;;
45322;SDS011;31382;50.200;8.674;2023-11-21T01:01:37;8.63;;;3.33;;
45322;SDS011;31382;50.200;8.674;2023-11-21T01:06:39;14.73;;;3.38;;
45322;SDS011;31382;50.200;8.674;2023-11-21T01:11:40;11.80;;;2.88;;
45322;SDS011;31382;50.200;8.674;2023-11-21T01:16:41;9.82;;;3.33;;
45322;SDS011;31382;50.200;8.674;2023-11-21T01:21:43;8.45;;;2.85;;
45322;SDS011;31382;50.200;8.674;2023-11-21T01:26:44;13.02;;;3.70;;
45322;SDS011;31382;50.200;8.674;2023-11-21T01:31:47;6.22;;;3.28;;
45322;SDS011;31382;50.200;8.674;2023-11-21T01:36:49;8.43;;;2.50;;
45322;SDS011;31382;50.200;8.674;2023-11-21T01:41:50;9.23;;;2.17;;
45322;SDS011;31382;50.200;8.674;2023-11-21T01:46:53;5.47;;;2.05;;
45322;SDS011;31382;50.200;8.674;2023-11-21T01:51:55;8.98;;;2.10;;
45322;SDS011;31382;50.200;8.674;2023-11-21T01:56:57;8.30;;;2.45;;
45322;SDS011;31382;50.200;8.674;2023-11-21T02:02:04;8.18;;;2.25;;
45322;SDS011;31382;50.200;8.674;2023-11-21T02:07:06;4.82;;;2.97;;
45322;SDS011;31382;50.200;8.674;2023-11-21T02:12:08;6.90;;;2.05;;
45322;SDS011;31382;50.200;8.674;2023-11-21T02:17:12;8.65;;;3.08;;
45322;SDS011;31382;50.200;8.674;2023-11-21T02:22:14;6.70;;;2.50;;
45322;SDS011;31382;50.200;8.674;2023-11-21T02:27:18;11.15;;;3.05;;
45322;SDS011;31382;50.200;8.674;2023-11-21T02:32:23;8.30;;;3.67;;
45322;SDS011;31382;50.200;8.674;2023-11-21T02:37:27;11.18;;;4.28;;
45322;SDS011;31382;50.200;8.674;2023-11-21T02:42:28;10.48;;;4.80;;
45322;SDS011;31382;50.200;8.674;2023-11-21T02:47:30;13.18;;;4.78;;
45322;SDS011;31382;50.200;8.674;2023-11-21T02:52:31;13.88;;;4.15;;
45322;SDS011;31382;50.200;8.674;2023-11-21T02:57:34;13.27;;;3.95;;
45322;SDS011;31382;50.200;8.674;2023-11-21T03:02:35;14.52;;;4.68;;
45322;SDS011;31382;50.200;8.674;2023-11-21T03:07:41;16.83;;;4.30;;
45322;SDS011;31382;50.200;8.674;2023-11-21T03:12:43;9.98;;;3.67;;
45322;SDS011;31382;50.200;8.674;2023-11-21T03:17:45;14.10;;;3.70;;
45322;SDS011;31382;50.200;8.674;2023-11-21T03:22:47;15.65;;;3.95;;
45322;SDS011;31382;50.200;8.674;2023-11-21T03:27:48;7.97;;;3.05;;
45322;SDS011;31382;50.200;8.674;2023-11-21T03:32:50;14.35;;;3.75;;
45322;SDS011;31382;50.200;8.674;2023-11-21T03:37:51;12.80;;;3.97;;
45322;SDS011;31382;50.200;8.674;2023-11-21T03:42:53;11.43;;;3.58;;
45322;SDS011;31382;50.200;8.674;2023-11-21T03:47:54;11.10;;;4.07;;
45322;SDS011;31382;50.200;8.674;2023-11-21T03:52:56;13.60;;;4.65;;
45322;SDS011;31382;50.200;8.674;2023-11-21T03:57:58;16.63;;;5.30;;
45322;SDS011;31382;50.200;8.674;2023-11-21T04:02:59;12.80;;;5.38;;
45322;SDS011;31382;50.200;8.674;2023-11-21T04:08:01;18.73;;;5.93;;
45322;SDS011;31382;50.200;8.674;2023-11-21T04:13:03;23.17;;;5.97;;
45322;SDS011;31382;50.200;8.674;2023-11-21T04:18:04;21.15;;;6.82;;
45322;SDS011;31382;50.200;8.674;2023-11-21T04:23:06;23.20;;;6.95;;
45322;SDS011;31382;50.200;8.674;2023-11-21T04:28:07;25.00;;;7.43;;
45322;SDS011;31382;50.200;8.674;2023-11-21T04:33:09;21.35;;;7.78;;
45322;SDS011;31382;50.200;8.674;2023-11-21T04:38:10;20.48;;;7.85;;
45322;SDS011;31382;50.200;8.674;2023-11-21T04:43:12;19.42;;;7.07;;
45322;SDS011;31382;50.200;8.674;2023-11-21T04:48:13;23.13;;;8.02;;
45322;SDS011;31382;50.200;8.674;2023-11-21T04:53:15;19.90;;;7.75;;
45322;SDS011;31382;50.200;8.674;2023-11-21T04:58:17;20.60;;;8.00;;
45322;SDS011;31382;50.200;8.674;2023-11-21T05:03:18;18.75;;;7.55;;
45322;SDS011;31382;50.200;8.674;2023-11-21T05:08:20;25.10;;;7.45;;
45322;SDS011;31382;50.200;8.674;2023-11-21T05:13:23;21.55;;;8.00;;
45322;SDS011;31382;50.200;8.674;2023-11-21T05:18:28;16.30;;;6.22;;
45322;SDS011;31382;50.200;8.674;2023-11-21T05:23:31;14.30;;;6.28;;
45322;SDS011;31382;50.200;8.674;2023-11-21T05:28:32;14.35;;;5.00;;
45322;SDS011;31382;50.200;8.674;2023-11-21T05:33:34;10.60;;;4.72;;
45322;SDS011;31382;50.200;8.674;2023-11-21T05:38:35;8.00;;;2.92;;
45322;SDS011;31382;50.200;8.674;2023-11-21T05:43:37;7.25;;;3.40;;
45322;SDS011;31382;50.200;8.674;2023-11-21T05:48:39;5.80;;;2.70;;
45322;SDS011;31382;50.200;8.674;2023-11-21T05:53:40;4.20;;;1.30;;
45322;SDS011;31382;50.200;8.674;2023-11-21T05:58:42;2.60;;;0.95;;
45322;SDS011;31382;50.200;8.674;2023-11-21T06:03:43;3.00;;;0.80;;
45322;SDS011;31382;50.200;8.674;2023-11-21T06:08:45;1.98;;;0.60;;
45322;SDS011;31382;50.200;8.674;2023-11-21T06:13:46;2.75;;;0.70;;
45322;SDS011;31382;50.200;8.674;2023-11-21T06:18:49;2.17;;;1.08;;
45322;SDS011;31382;50.200;8.674;2023-11-21T06:23:50;3.08;;;1.20;;
45322;SDS011;31382;50.200;8.674;2023-11-21T06:28:54;5.07;;;1.35;;
45322;SDS011;31382;50.200;8.674;2023-11-21T06:33:56;3.28;;;1.40;;
45322;SDS011;31382;50.200;8.674;2023-11-21T06:38:57;2.63;;;1.25;;
45322;SDS011;31382;50.200;8.674;2023-11-21T06:43:59;4.22;;;1.20;;
45322;SDS011;31382;50.200;8.674;2023-11-21T06:49:00;3.67;;;1.38;;
45322;SDS011;31382;50.200;8.674;2023-11-21T06:54:02;8.05;;;3.10;;
45322;SDS011;31382;50.200;8.674;2023-11-21T06:59:03;4.40;;;1.95;;
45322;SDS011;31382;50.200;8.674;2023-11-21T07:04:06;3.80;;;1.95;;
45322;SDS011;31382;50.200;8.674;2023-11-21T07:09:08;5.75;;;2.17;;
45322;SDS011;31382;50.200;8.674;2023-11-21T07:14:10;4.90;;;2.45;;
45322;SDS011;31382;50.200;8.674;2023-11-21T07:19:13;5.97;;;2.70;;
45322;SDS011;31382;50.200;8.674;2023-11-21T07:24:15;6.65;;;3.10;;
45322;SDS011;31382;50.200;8.674;2023-11-21T07:29:17;4.57;;;2.22;;
45322;SDS011;31382;50.200;8.674;2023-11-21T07:34:22;7.10;;;2.13;;
45322;SDS011;31382;50.200;8.674;2023-11-21T07:39:23;7.55;;;2.72;;
45322;SDS011;31382;50.200;8.674;2023-11-21T07:44:25;4.57;;;1.85;;
45322;SDS011;31382;50.200;8.674;2023-11-21T07:49:27;6.75;;;2.90;;
45322;SDS011;31382;50.200;8.674;2023-11-21T07:54:28;7.60;;;3.13;;
45322;SDS011;31382;50.200;8.674;2023-11-21T07:59:30;7.55;;;2.78;;
45322;SDS011;31382;50.200;8.674;2023-11-21T08:04:31;5.90;;;2.17;;
45322;SDS011;31382;50.200;8.674;2023-11-21T08:09:35;7.00;;;2.60;;
45322;SDS011;31382;50.200;8.674;2023-11-21T08:14:36;7.60;;;2.35;;
45322;SDS011;31382;50.200;8.674;2023-11-21T08:19:40;6.40;;;1.98;;
45322;SDS011;31382;50.200;8.674;2023-11-21T08:24:42;6.72;;;2.05;;
45322;SDS011;31382;50.200;8.674;2023-11-21T08:29:44;7.78;;;2.58;;
45322;SDS011;31382;50.200;8.674;2023-11-21T08:34:45;11.32;;;1.80;;
45322;SDS011;31382;50.200;8.674;2023-11-21T08:39:49;5.65;;;1.73;;
45322;SDS011;31382;50.200;8.674;2023-11-21T08:44:50;4.35;;;1.35;;
45322;SDS011;31382;50.200;8.674;2023-11-21T08:49:52;6.53;;;1.60;;
45322;SDS011;31382;50.200;8.674;2023-11-21T08:54:54;4.57;;;1.88;;
45322;SDS011;31382;50.200;8.674;2023-11-21T08:59:58;4.80;;;1.50;;
45322;SDS011;31382;50.200;8.674;2023-11-21T09:05:00;6.20;;;2.03;;
45322;SDS011;31382;50.200;8.674;2023-11-21T09:10:04;6.50;;;1.27;;
45322;SDS011;31382;50.200;8.674;2023-11-21T09:15:08;6.18;;;1.13;;
45322;SDS011;31382;50.200;8.674;2023-11-21T09:20:11;6.72;;;1.92;;
45322;SDS011;31382;50.200;8.674;2023-11-21T09:25:13;3.88;;;1.58;;
45322;SDS011;31382;50.200;8.674;2023-11-21T09:30:14;10.70;;;1.95;;
45322;SDS011;31382;50.200;8.674;2023-11-21T09:35:15;5.50;;;1.58;;
45322;SDS011;31382;50.200;8.674;2023-11-21T09:40:20;3.63;;;1.75;;
45322;SDS011;31382;50.200;8.674;2023-11-21T09:45:25;4.63;;;1.60;;
45322;SDS011;31382;50.200;8.674;2023-11-21T09:50:27;8.27;;;3.30;;
45322;SDS011;31382;50.200;8.674;2023-11-21T09:55:29;5.70;;;1.30;;
45322;SDS011;31382;50.200;8.674;2023-11-21T10:05:44;8.70;;;2.30;;
45322;SDS011;31382;50.200;8.674;2023-11-21T10:10:48;5.80;;;2.43;;
45322;SDS011;31382;50.200;8.674;2023-11-21T10:15:52;8.15;;;2.50;;
45322;SDS011;31382;50.200;8.674;2023-11-21T10:20:54;5.63;;;2.15;;
45322;SDS011;31382;50.200;8.674;2023-11-21T10:25:57;5.82;;;2.47;;
45322;SDS011;31382;50.200;8.674;2023-11-21T10:31:11;7.35;;;3.03;;
45322;SDS011;31382;50.200;8.674;2023-11-21T10:36:14;11.82;;;3.10;;
45322;SDS011;31382;50.200;8.674;2023-11-21T10:41:26;8.18;;;2.58;;
45322;SDS011;31382;50.200;8.674;2023-11-21T10:46:27;5.47;;;2.45;;
45322;SDS011;31382;50.200;8.674;2023-11-21T10:51:29;6.57;;;2.40;;
45322;SDS011;31382;50.200;8.674;2023-11-21T10:56:30;12.32;;;2.83;;
45322;SDS011;31382;50.200;8.674;2023-11-21T11:01:36;8.57;;;3.20;;
45322;SDS011;31382;50.200;8.674;2023-11-21T11:06:38;13.38;;;3.10;;
45322;SDS011;31382;50.200;8.674;2023-11-21T11:11:40;7.78;;;3.08;;
45322;SDS011;31382;50.200;8.674;2023-11-21T11:16:53;7.10;;;3.38;;
45322;SDS011;31382;50.200;8.674;2023-11-21T11:32:21;5.78;;;2.65;;
45322;SDS011;31382;50.200;8.674;2023-11-21T11:37:35;11.05;;;3.42;;
45322;SDS011;31382;50.200;8.674;2023-11-21T11:42:36;8.13;;;2.88;;
45322;SDS011;31382;50.200;8.674;2023-11-21T11:47:38;6.57;;;3.00;;
45322;SDS011;31382;50.200;8.674;2023-11-21T11:52:45;5.20;;;2.42;;
45322;SDS011;31382;50.200;8.674;2023-11-21T11:57:56;7.00;;;2.83;;
45322;SDS011;31382;50.200;8.674;2023-11-21T12:02:58;7.13;;;2.78;;
45322;SDS011;31382;50.200;8.674;2023-11-21T12:08:05;6.57;;;2.60;;
45322;SDS011;31382;50.200;8.674;2023-11-21T12:13:08;3.88;;;2.00;;
45322;SDS011;31382;50.200;8.674;2023-11-21T12:18:11;7.45;;;3.03;;
45322;SDS011;31382;50.200;8.674;2023-11-21T12:23:13;9.43;;;2.88;;
45322;SDS011;31382;50.200;8.674;2023-11-21T12:28:16;4.50;;;2.30;;
45322;SDS011;31382;50.200;8.674;2023-11-21T12:33:18;8.23;;;1.85;;
45322;SDS011;31382;50.200;8.674;2023-11-21T12:38:20;5.47;;;2.28;;
45322;SDS011;31382;50.200;8.674;2023-11-21T12:43:22;4.18;;;1.70;;
45322;SDS011;31382;50.200;8.674;2023-11-21T12:48:23;5.53;;;2.33;;
45322;SDS011;31382;50.200;8.674;2023-11-21T12:53:26;3.80;;;1.80;;
45322;SDS011;31382;50.200;8.674;2023-11-21T12:58:27;5.70;;;2.47;;
45322;SDS011;31382;50.200;8.674;2023-11-21T13:03:30;6.57;;;1.65;;
45322;SDS011;31382;50.200;8.674;2023-11-21T13:08:32;3.92;;;1.92;;
45322;SDS011;31382;50.200;8.674;2023-11-21T13:13:34;9.18;;;2.30;;
45322;SDS011;31382;50.200;8.674;2023-11-21T13:18:35;4.95;;;1.65;;
45322;SDS011;31382;50.200;8.674;2023-11-21T13:23:39;3.58;;;1.27;;
45322;SDS011;31382;50.200;8.674;2023-11-21T13:28:42;7.97;;;1.88;;
45322;SDS011;31382;50.200;8.674;2023-11-21T13:33:49;8.45;;;2.65;;
45322;SDS011;31382;50.200;8.674;2023-11-21T13:38:58;5.63;;;2.00;;
45322;SDS011;31382;50.200;8.674;2023-11-21T13:44:00;6.78;;;2.20;;
45322;SDS011;31382;50.200;8.674;2023-11-21T13:49:16;5.60;;;2.30;;
45322;SDS011;31382;50.200;8.674;2023-11-21T13:54:19;4.43;;;2.42;;
45322;SDS011;31382;50.200;8.674;2023-11-21T13:59:22;6.65;;;2.40;;
45322;SDS011;31382;50.200;8.674;2023-11-21T14:04:29;4.63;;;2.50;;
45322;SDS011;31382;50.200;8.674;2023-11-21T14:09:49;7.18;;;2.47;;
45322;SDS011;31382;50.200;8.674;2023-11-21T14:14:51;8.10;;;3.13;;
45322;SDS011;31382;50.200;8.674;2023-11-21T14:19:52;6.95;;;3.00;;
45322;SDS011;31382;50.200;8.674;2023-11-21T14:24:56;11.52;;;2.83;;
45322;SDS011;31382;50.200;8.674;2023-11-21T14:30:01;9.68;;;3.70;;
45322;SDS011;31382;50.200;8.674;2023-11-21T14:35:02;8.38;;;3.00;;
45322;SDS011;31382;50.200;8.674;2023-11-21T14:40:05;7.47;;;2.95;;
45322;SDS011;31382;50.200;8.674;2023-11-21T14:45:09;8.75;;;2.67;;
45322;SDS011;31382;50.200;8.674;2023-11-21T14:50:13;9.93;;;3.42;;
45322;SDS011;31382;50.200;8.674;2023-11-21T14:55:33;10.82;;;2.58;;
45322;SDS011;31382;50.200;8.674;2023-11-21T15:00:54;2.35;;;1.38;;
45322;SDS011;31382;50.200;8.674;2023-11-21T15:06:00;6.25;;;1.98;;
45322;SDS011;31382;50.200;8.674;2023-11-21T15:11:22;4.68;;;2.20;;
45322;SDS011;31382;50.200;8.674;2023-11-21T15:16:32;8.05;;;1.90;;
45322;SDS011;31382;50.200;8.674;2023-11-21T15:21:34;5.85;;;2.35;;
45322;SDS011;31382;50.200;8.674;2023-11-21T15:26:35;8.77;;;2.92;;
45322;SDS011;31382;50.200;8.674;2023-11-21T15:31:36;9.85;;;2.13;;
45322;SDS011;31382;50.200;8.674;2023-11-21T15:36:39;4.32;;;1.45;;
45322;SDS011;31382;50.200;8.674;2023-11-21T15:41:41;4.88;;;2.30;;
45322;SDS011;31382;50.200;8.674;2023-11-21T15:46:43;5.93;;;1.98;;
45322;SDS011;31382;50.200;8.674;2023-11-21T15:51:44;3.50;;;2.15;;
45322;SDS011;31382;50.200;8.674;2023-11-21T15:56:48;6.20;;;1.67;;
45322;SDS011;31382;50.200;8.674;2023-11-21T16:01:50;3.70;;;1.83;;
45322;SDS011;31382;50.200;8.674;2023-11-21T16:06:51;6.97;;;2.45;;
45322;SDS011;31382;50.200;8.674;2023-11-21T16:11:54;4.43;;;2.50;;
45322;SDS011;31382;50.200;8.674;2023-11-21T16:17:00;5.57;;;2.78;;
45322;SDS011;31382;50.200;8.674;2023-11-21T16:22:05;9.15;;;2.90;;
45322;SDS011;31382;50.200;8.674;2023-11-21T16:27:07;6.15;;;3.08;;
45322;SDS011;31382;50.200;8.674;2023-11-21T16:32:12;6.15;;;2.80;;
45322;SDS011;31382;50.200;8.674;2023-11-21T16:37:13;9.48;;;3.70;;
45322;SDS011;31382;50.200;8.674;2023-11-21T16:42:15;6.78;;;3.13;;
45322;SDS011;31382;50.200;8.674;2023-11-21T16:47:17;9.85;;;3.70;;
45322;SDS011;31382;50.200;8.674;2023-11-21T16:52:20;8.18;;;3.47;;
45322;SDS011;31382;50.200;8.674;2023-11-21T16:57:23;6.75;;;2.47;;
45322;SDS011;31382;50.200;8.674;2023-11-21T17:02:25;7.38;;;3.00;;
45322;SDS011;31382;50.200;8.674;2023-11-21T17:07:27;8.25;;;3.10;;
45322;SDS011;31382;50.200;8.674;2023-11-21T17:12:30;6.55;;;2.90;;
45322;SDS011;31382;50.200;8.674;2023-11-21T17:17:31;11.25;;;2.63;;
45322;SDS011;31382;50.200;8.674;2023-11-21T17:22:33;8.95;;;3.95;;
45322;SDS011;31382;50.200;8.674;2023-11-21T17:27:35;8.48;;;3.38;;
45322;SDS011;31382;50.200;8.674;2023-11-21T17:32:37;5.32;;;2.08;;
45322;SDS011;31382;50.200;8.674;2023-11-21T17:37:39;5.30;;;2.63;;
45322;SDS011;31382;50.200;8.674;2023-11-21T17:42:41;3.78;;;1.75;;
45322;SDS011;31382;50.200;8.674;2023-11-21T17:47:42;3.17;;;1.58;;
45322;SDS011;31382;50.200;8.674;2023-11-21T17:52:44;6.85;;;2.20;;
45322;SDS011;31382;50.200;8.674;2023-11-21T17:57:46;2.72;;;1.42;;
45322;SDS011;31382;50.200;8.674;2023-11-21T18:02:47;6.03;;;1.35;;
45322;SDS011;31382;50.200;8.674;2023-11-21T18:07:49;1.85;;;0.98;;
45322;SDS011;31382;50.200;8.674;2023-11-21T18:12:52;2.80;;;1.15;;
45322;SDS011;31382;50.200;8.674;2023-11-21T18:17:54;3.25;;;1.25;;
45322;SDS011;31382;50.200;8.674;2023-11-21T18:22:55;2.13;;;1.30;;
45322;SDS011;31382;50.200;8.674;2023-11-21T18:27:57;3.90;;;1.60;;
45322;SDS011;31382;50.200;8.674;2023-11-21T18:32:58;3.00;;;1.70;;
45322;SDS011;31382;50.200;8.674;2023-11-21T18:38:00;3.45;;;1.85;;
45322;SDS011;31382;50.200;8.674;2023-11-21T18:43:01;3.15;;;1.77;;
45322;SDS011;31382;50.200;8.674;2023-11-21T18:48:03;1.90;;;1.13;;
45322;SDS011;31382;50.200;8.674;2023-11-21T18:53:05;4.05;;;1.05;;
45322;SDS011;31382;50.200;8.674;2023-11-21T18:58:07;3.70;;;1.45;;
45322;SDS011;31382;50.200;8.674;2023-11-21T19:03:08;2.38;;;1.48;;
45322;SDS011;31382;50.200;8.674;2023-11-21T19:08:13;3.42;;;1.95;;
45322;SDS011;31382;50.200;8.674;2023-11-21T19:13:15;4.47;;;2.60;;
45322;SDS011;31382;50.200;8.674;2023-11-21T19:18:19;3.90;;;2.08;;
45322;SDS011;31382;50.200;8.674;2023-11-21T19:23:20;4.50;;;1.90;;
45322;SDS011;31382;50.200;8.674;2023-11-21T19:28:22;5.53;;;2.47;;
45322;SDS011;31382;50.200;8.674;2023-11-21T19:33:23;4.35;;;2.20;;
45322;SDS011;31382;50.200;8.674;2023-11-21T19:38:27;6.00;;;2.33;;
45322;SDS011;31382;50.200;8.674;2023-11-21T19:43:29;4.80;;;2.55;;
45322;SDS011;31382;50.200;8.674;2023-11-21T19:48:32;6.78;;;2.42;;
45322;SDS011;31382;50.200;8.674;2023-11-21T19:53:33;5.82;;;2.60;;
45322;SDS011;31382;50.200;8.674;2023-11-21T19:58:38;5.63;;;2.53;;
45322;SDS011;31382;50.200;8.674;2023-11-21T20:03:42;5.43;;;2.53;;
45322;SDS011;31382;50.200;8.674;2023-11-21T20:08:44;4.43;;;2.92;;
45322;SDS011;31382;50.200;8.674;2023-11-21T20:13:48;4.43;;;2.40;;
45322;SDS011;31382;50.200;8.674;2023-11-21T20:18:50;5.38;;;2.28;;
45322;SDS011;31382;50.200;8.674;2023-11-21T20:23:51;5.15;;;2.63;;
45322;SDS011;31382;50.200;8.674;2023-11-21T20:28:56;5.15;;;2.63;;
45322;SDS011;31382;50.200;8.674;2023-11-21T20:33:57;4.97;;;2.00;;
45322;SDS011;31382;50.200;8.674;2023-11-21T20:38:59;5.30;;;2.67;;
45322;SDS011;31382;50.200;8.674;2023-11-21T20:44:00;4.78;;;2.70;;
45322;SDS011;31382;50.200;8.674;2023-11-21T20:49:02;5.20;;;3.20;;
45322;SDS011;31382;50.200;8.674;2023-11-21T20:54:04;5.68;;;2.35;;
45322;SDS011;31382;50.200;8.674;2023-11-21T20:59:06;3.90;;;1.90;;
45322;SDS011;31382;50.200;8.674;2023-11-21T21:04:08;6.20;;;2.28;;
45322;SDS011;31382;50.200;8.674;2023-11-21T21:09:10;4.45;;;2.40;;
45322;SDS011;31382;50.200;8.674;2023-11-21T21:14:12;4.35;;;3.00;;
45322;SDS011;31382;50.200;8.674;2023-11-21T21:19:13;4.80;;;2.28;;
45322;SDS011;31382;50.200;8.674;2023-11-21T21:24:15;4.63;;;2.13;;
45322;SDS011;31382;50.200;8.674;2023-11-21T21:29:16;2.50;;;1.63;;
45322;SDS011;31382;50.200;8.674;2023-11-21T21:34:18;4.55;;;2.10;;
45322;SDS011;31382;50.200;8.674;2023-11-21T21:39:19;3.30;;;1.42;;
45322;SDS011;31382;50.200;8.674;2023-11-21T21:44:21;4.43;;;2.20;;
45322;SDS011;31382;50.200;8.674;2023-11-21T21:49:23;4.80;;;2.30;;
45322;SDS011;31382;50.200;8.674;2023-11-21T21:54:25;4.93;;;1.80;;
45322;SDS011;31382;50.200;8.674;2023-11-21T21:59:28;3.25;;;1.73;;
45322;SDS011;31382;50.200;8.674;2023-11-21T22:04:29;5.97;;;2.53;;
45322;SDS011;31382;50.200;8.674;2023-11-21T22:09:33;3.70;;;2.15;;
45322;SDS011;31382;50.200;8.674;2023-11-21T22:14:35;4.80;;;2.60;;
45322;SDS011;31382;50.200;8.674;2023-11-21T22:19:36;4.20;;;1.95;;
45322;SDS011;31382;50.200;8.674;2023-11-21T22:24:38;3.95;;;1.33;;
45322;SDS011;31382;50.200;8.674;2023-11-21T22:29:39;4.20;;;1.75;;
45322;SDS011;31382;50.200;8.674;2023-11-21T22:34:42;2.65;;;1.38;;
45322;SDS011;31382;50.200;8.674;2023-11-21T22:39:43;4.00;;;1.73;;
45322;SDS011;31382;50.200;8.674;2023-11-21T22:44:45;2.85;;;1.40;;
45322;SDS011;31382;50.200;8.674;2023-11-21T22:49:46;2.97;;;1.45;;
45322;SDS011;31382;50.200;8.674;2023-11-21T22:54:48;2.75;;;1.40;;
45322;SDS011;31382;50.200;8.674;2023-11-21T22:59:50;3.50;;;1.88;;
45322;SDS011;31382;50.200;8.674;2023-11-21T23:04:51;6.03;;;2.05;;
45322;SDS011;31382;50.200;8.674;2023-11-21T23:09:53;3.88;;;1.52;;
45322;SDS011;31382;50.200;8.674;2023-11-21T23:14:54;3.67;;;1.70;;
45322;SDS011;31382;50.200;8.674;2023-11-21T23:19:56;6.20;;;1.92;;
45322;SDS011;31382;50.200;8.674;2023-11-21T23:24:57;4.38;;;2.17;;
45322;SDS011;31382;50.200;8.674;2023-11-21T23:29:59;5.35;;;2.28;;
45322;SDS011;31382;50.200;8.674;2023-11-21T23:35:00;8.95;;;2.80;;
45322;SDS011;31382;50.200;8.674;2023-11-21T23:40:02;5.80;;;2.15;;
45322;SDS011;31382;50.200;8.674;2023-11-21T23:45:08;4.93;;;2.30;;
45322;SDS011;31382;50.200;8.674;2023-11-21T23:50:10;4.47;;;1.85;;
45322;SDS011;31382;50.200;8.674;2023-11-21T23:55:11;1.95;;;1.30;;
